sensor_id;sensor_type;location;lat;lon;timestamp;P1;durP1;ratioP1;P2;durP2;ratioP2
6834;SDS011;3455;42.150;24.734;2023-03-01T00:00:12;4.30;;;4.00;;
6834;SDS011;3455;42.150;24.734;2023-03-01T00:02:39;3.97;;;3.67;;
6834;SDS011;3455;42.150;24.734;2023-03-01T00:05:07;5.00;;;4.80;;
6834;SDS011;3455;42.150;24.734;2023-03-01T00:07:34;5.43;;;5.03;;
6834;SDS011;3455;42.150;24.734;2023-03-01T00:10:02;4.73;;;4.43;;
6834;SDS011;3455;42.150;24.734;2023-03-01T00:12:29;5.37;;;5.07;;
6834;SDS011;3455;42.150;24.734;2023-03-01T00:14:57;5.03;;;4.73;;
6834;SDS011;3455;42.150;24.734;2023-03-01T00:17:24;4.30;;;4.10;;
6834;SDS011;3455;42.150;24.734;2023-03-01T00:19:50;4.83;;;4.47;;
6834;SDS011;3455;42.150;24.734;2023-03-01T00:22:17;3.90;;;3.70;;
6834;SDS011;3455;42.150;24.734;2023-03-01T00:24:44;3.60;;;3.40;;
6834;SDS011;3455;42.150;24.734;2023-03-01T00:27:12;3.57;;;3.37;;
6834;SDS011;3455;42.150;24.734;2023-03-01T00:29:39;3.10;;;3.00;;
6834;SDS011;3455;42.150;24.734;2023-03-01T00:32:05;3.17;;;3.07;;
6834;SDS011;3455;42.150;24.734;2023-03-01T00:34:32;3.00;;;2.90;;
6834;SDS011;3455;42.150;24.734;2023-03-01T00:36:59;3.60;;;3.40;;
6834;SDS011;3455;42.150;24.734;2023-03-01T00:39:30;3.90;;;3.70;;
6834;SDS011;3455;42.150;24.734;2023-03-01T00:41:58;4.37;;;4.10;;
6834;SDS011;3455;42.150;24.734;2023-03-01T00:44:26;4.10;;;3.80;;
6834;SDS011;3455;42.150;24.734;2023-03-01T00:46:53;3.83;;;3.63;;
6834;SDS011;3455;42.150;24.734;2023-03-01T00:49:20;3.70;;;3.40;;
6834;SDS011;3455;42.150;24.734;2023-03-01T00:51:49;3.87;;;3.67;;
6834;SDS011;3455;42.150;24.734;2023-03-01T00:54:16;3.53;;;3.33;;
6834;SDS011;3455;42.150;24.734;2023-03-01T00:56:42;3.60;;;3.40;;
6834;SDS011;3455;42.150;24.734;2023-03-01T00:59:09;3.40;;;3.20;;
6834;SDS011;3455;42.150;24.734;2023-03-01T01:01:37;3.20;;;3.10;;
6834;SDS011;3455;42.150;24.734;2023-03-01T01:04:05;3.50;;;3.30;;
6834;SDS011;3455;42.150;24.734;2023-03-01T01:06:33;3.20;;;3.00;;
6834;SDS011;3455;42.150;24.734;2023-03-01T01:09:02;2.97;;;2.87;;
6834;SDS011;3455;42.150;24.734;2023-03-01T01:11:30;2.60;;;2.50;;
6834;SDS011;3455;42.150;24.734;2023-03-01T01:13:57;2.63;;;2.53;;
6834;SDS011;3455;42.150;24.734;2023-03-01T01:16:25;3.10;;;2.90;;
6834;SDS011;3455;42.150;24.734;2023-03-01T01:18:55;2.70;;;2.57;;
6834;SDS011;3455;42.150;24.734;2023-03-01T01:21:23;2.90;;;2.80;;
6834;SDS011;3455;42.150;24.734;2023-03-01T01:23:50;2.70;;;2.60;;
6834;SDS011;3455;42.150;24.734;2023-03-01T01:26:19;2.90;;;2.80;;
6834;SDS011;3455;42.150;24.734;2023-03-01T01:28:47;2.73;;;2.63;;
6834;SDS011;3455;42.150;24.734;2023-03-01T01:31:14;2.87;;;2.77;;
6834;SDS011;3455;42.150;24.734;2023-03-01T01:33:42;2.63;;;2.53;;
6834;SDS011;3455;42.150;24.734;2023-03-01T01:36:11;2.70;;;2.60;;
6834;SDS011;3455;42.150;24.734;2023-03-01T01:38:38;3.00;;;2.90;;
6834;SDS011;3455;42.150;24.734;2023-03-01T01:41:07;3.37;;;3.17;;
6834;SDS011;3455;42.150;24.734;2023-03-01T01:43:37;3.20;;;3.10;;
6834;SDS011;3455;42.150;24.734;2023-03-01T01:46:10;3.03;;;2.93;;
6834;SDS011;3455;42.150;24.734;2023-03-01T01:48:47;2.77;;;2.67;;
6834;SDS011;3455;42.150;24.734;2023-03-01T01:51:18;2.80;;;2.70;;
6834;SDS011;3455;42.150;24.734;2023-03-01T01:53:51;3.60;;;3.40;;
6834;SDS011;3455;42.150;24.734;2023-03-01T01:56:23;3.10;;;3.00;;
6834;SDS011;3455;42.150;24.734;2023-03-01T01:58:51;3.00;;;2.80;;
6834;SDS011;3455;42.150;24.734;2023-03-01T02:01:19;3.10;;;2.90;;
6834;SDS011;3455;42.150;24.734;2023-03-01T02:03:46;3.33;;;3.13;;
6834;SDS011;3455;42.150;24.734;2023-03-01T02:06:16;3.17;;;3.07;;
6834;SDS011;3455;42.150;24.734;2023-03-01T02:08:48;3.40;;;3.20;;
6834;SDS011;3455;42.150;24.734;2023-03-01T02:11:18;3.57;;;3.27;;
6834;SDS011;3455;42.150;24.734;2023-03-01T02:13:47;4.43;;;4.17;;
6834;SDS011;3455;42.150;24.734;2023-03-01T02:16:14;3.70;;;3.50;;
6834;SDS011;3455;42.150;24.734;2023-03-01T02:18:42;3.50;;;3.30;;
6834;SDS011;3455;42.150;24.734;2023-03-01T02:21:17;3.30;;;3.20;;
6834;SDS011;3455;42.150;24.734;2023-03-01T02:23:56;3.90;;;3.60;;
6834;SDS011;3455;42.150;24.734;2023-03-01T02:26:29;2.70;;;2.60;;
6834;SDS011;3455;42.150;24.734;2023-03-01T02:29:03;3.43;;;3.23;;
6834;SDS011;3455;42.150;24.734;2023-03-01T02:31:31;3.70;;;3.50;;
6834;SDS011;3455;42.150;24.734;2023-03-01T02:34:11;2.90;;;2.80;;
6834;SDS011;3455;42.150;24.734;2023-03-01T02:36:40;2.80;;;2.70;;
6834;SDS011;3455;42.150;24.734;2023-03-01T02:39:10;3.27;;;3.10;;
6834;SDS011;3455;42.150;24.734;2023-03-01T02:41:43;3.17;;;3.07;;
6834;SDS011;3455;42.150;24.734;2023-03-01T02:44:14;2.90;;;2.70;;
6834;SDS011;3455;42.150;24.734;2023-03-01T02:46:42;3.17;;;3.07;;
6834;SDS011;3455;42.150;24.734;2023-03-01T02:49:18;3.03;;;2.70;;
6834;SDS011;3455;42.150;24.734;2023-03-01T02:51:50;2.80;;;2.70;;
6834;SDS011;3455;42.150;24.734;2023-03-01T02:54:23;2.70;;;2.60;;
6834;SDS011;3455;42.150;24.734;2023-03-01T02:56:54;2.60;;;2.50;;
6834;SDS011;3455;42.150;24.734;2023-03-01T02:59:24;2.70;;;2.50;;
6834;SDS011;3455;42.150;24.734;2023-03-01T03:01:54;2.97;;;2.73;;
6834;SDS011;3455;42.150;24.734;2023-03-01T03:04:21;3.00;;;2.83;;
6834;SDS011;3455;42.150;24.734;2023-03-01T03:06:49;2.60;;;2.40;;
6834;SDS011;3455;42.150;24.734;2023-03-01T03:09:16;2.73;;;2.50;;
6834;SDS011;3455;42.150;24.734;2023-03-01T03:11:45;2.87;;;2.77;;
6834;SDS011;3455;42.150;24.734;2023-03-01T03:14:13;2.80;;;2.67;;
6834;SDS011;3455;42.150;24.734;2023-03-01T03:16:43;2.97;;;2.87;;
6834;SDS011;3455;42.150;24.734;2023-03-01T03:19:11;2.27;;;2.17;;
6834;SDS011;3455;42.150;24.734;2023-03-01T03:21:38;2.80;;;2.70;;
6834;SDS011;3455;42.150;24.734;2023-03-01T03:24:04;2.43;;;2.33;;
6834;SDS011;3455;42.150;24.734;2023-03-01T03:26:31;2.93;;;2.83;;
6834;SDS011;3455;42.150;24.734;2023-03-01T03:28:58;2.80;;;2.70;;
6834;SDS011;3455;42.150;24.734;2023-03-01T03:31:25;2.80;;;2.60;;
6834;SDS011;3455;42.150;24.734;2023-03-01T03:33:54;3.23;;;2.83;;
6834;SDS011;3455;42.150;24.734;2023-03-01T03:36:22;3.70;;;3.50;;
6834;SDS011;3455;42.150;24.734;2023-03-01T03:38:50;3.17;;;3.07;;
6834;SDS011;3455;42.150;24.734;2023-03-01T03:41:17;4.30;;;3.57;;
6834;SDS011;3455;42.150;24.734;2023-03-01T03:43:44;4.03;;;3.83;;
6834;SDS011;3455;42.150;24.734;2023-03-01T03:46:11;3.70;;;3.50;;
6834;SDS011;3455;42.150;24.734;2023-03-01T03:48:38;4.27;;;4.07;;
6834;SDS011;3455;42.150;24.734;2023-03-01T03:51:09;4.37;;;4.17;;
6834;SDS011;3455;42.150;24.734;2023-03-01T03:53:36;3.87;;;3.67;;
6834;SDS011;3455;42.150;24.734;2023-03-01T03:56:04;4.17;;;3.97;;
6834;SDS011;3455;42.150;24.734;2023-03-01T03:58:31;4.30;;;4.10;;
6834;SDS011;3455;42.150;24.734;2023-03-01T04:00:58;3.87;;;3.67;;
6834;SDS011;3455;42.150;24.734;2023-03-01T04:03:43;4.23;;;3.90;;
6834;SDS011;3455;42.150;24.734;2023-03-01T04:06:13;3.87;;;3.67;;
6834;SDS011;3455;42.150;24.734;2023-03-01T04:08:40;4.23;;;3.90;;
6834;SDS011;3455;42.150;24.734;2023-03-01T04:11:08;3.30;;;3.10;;
6834;SDS011;3455;42.150;24.734;2023-03-01T04:13:56;3.43;;;3.23;;
6834;SDS011;3455;42.150;24.734;2023-03-01T04:16:24;3.23;;;3.03;;
6834;SDS011;3455;42.150;24.734;2023-03-01T04:18:51;3.57;;;3.47;;
6834;SDS011;3455;42.150;24.734;2023-03-01T04:21:20;3.63;;;3.43;;
6834;SDS011;3455;42.150;24.734;2023-03-01T04:23:47;3.47;;;3.27;;
6834;SDS011;3455;42.150;24.734;2023-03-01T04:26:17;3.93;;;3.73;;
6834;SDS011;3455;42.150;24.734;2023-03-01T04:28:44;3.50;;;3.30;;
6834;SDS011;3455;42.150;24.734;2023-03-01T04:31:13;3.77;;;3.57;;
6834;SDS011;3455;42.150;24.734;2023-03-01T04:33:43;3.93;;;3.73;;
6834;SDS011;3455;42.150;24.734;2023-03-01T04:36:12;4.03;;;3.83;;
6834;SDS011;3455;42.150;24.734;2023-03-01T04:38:41;4.90;;;4.60;;
6834;SDS011;3455;42.150;24.734;2023-03-01T04:41:12;4.47;;;4.27;;
6834;SDS011;3455;42.150;24.734;2023-03-01T04:43:40;4.00;;;3.80;;
6834;SDS011;3455;42.150;24.734;2023-03-01T04:46:08;4.47;;;4.17;;
6834;SDS011;3455;42.150;24.734;2023-03-01T04:48:38;4.80;;;4.40;;
6834;SDS011;3455;42.150;24.734;2023-03-01T04:51:05;4.93;;;4.63;;
6834;SDS011;3455;42.150;24.734;2023-03-01T04:53:33;4.27;;;4.07;;
6834;SDS011;3455;42.150;24.734;2023-03-01T04:56:03;4.67;;;4.37;;
6834;SDS011;3455;42.150;24.734;2023-03-01T04:58:30;3.97;;;3.77;;
6834;SDS011;3455;42.150;24.734;2023-03-01T05:00:56;4.93;;;4.63;;
6834;SDS011;3455;42.150;24.734;2023-03-01T05:03:23;4.83;;;4.53;;
6834;SDS011;3455;42.150;24.734;2023-03-01T05:05:51;4.93;;;4.63;;
6834;SDS011;3455;42.150;24.734;2023-03-01T05:08:19;4.63;;;4.27;;
6834;SDS011;3455;42.150;24.734;2023-03-01T05:10:47;4.87;;;4.47;;
6834;SDS011;3455;42.150;24.734;2023-03-01T05:13:17;4.60;;;4.30;;
6834;SDS011;3455;42.150;24.734;2023-03-01T05:15:47;4.87;;;4.63;;
6834;SDS011;3455;42.150;24.734;2023-03-01T05:18:15;5.43;;;5.13;;
6834;SDS011;3455;42.150;24.734;2023-03-01T05:20:41;4.97;;;4.67;;
6834;SDS011;3455;42.150;24.734;2023-03-01T05:23:09;4.97;;;4.67;;
6834;SDS011;3455;42.150;24.734;2023-03-01T05:25:36;5.33;;;4.93;;
6834;SDS011;3455;42.150;24.734;2023-03-01T05:28:05;4.70;;;4.40;;
6834;SDS011;3455;42.150;24.734;2023-03-01T05:30:36;4.77;;;4.47;;
6834;SDS011;3455;42.150;24.734;2023-03-01T05:33:05;5.13;;;4.83;;
6834;SDS011;3455;42.150;24.734;2023-03-01T05:35:39;8.03;;;7.40;;
6834;SDS011;3455;42.150;24.734;2023-03-01T05:38:07;13.13;;;11.77;;
6834;SDS011;3455;42.150;24.734;2023-03-01T05:40:39;4.87;;;4.60;;
6834;SDS011;3455;42.150;24.734;2023-03-01T05:43:10;5.10;;;4.77;;
6834;SDS011;3455;42.150;24.734;2023-03-01T05:45:39;5.90;;;5.60;;
6834;SDS011;3455;42.150;24.734;2023-03-01T05:48:11;5.63;;;5.33;;
6834;SDS011;3455;42.150;24.734;2023-03-01T05:50:39;6.00;;;5.70;;
6834;SDS011;3455;42.150;24.734;2023-03-01T05:53:11;8.60;;;8.00;;
6834;SDS011;3455;42.150;24.734;2023-03-01T05:55:41;25.17;;;15.10;;
6834;SDS011;3455;42.150;24.734;2023-03-01T05:58:10;8.53;;;7.80;;
6834;SDS011;3455;42.150;24.734;2023-03-01T06:00:40;6.80;;;6.40;;
6834;SDS011;3455;42.150;24.734;2023-03-01T06:03:09;6.13;;;5.63;;
6834;SDS011;3455;42.150;24.734;2023-03-01T06:05:37;7.20;;;6.70;;
6834;SDS011;3455;42.150;24.734;2023-03-01T06:08:04;5.87;;;5.53;;
6834;SDS011;3455;42.150;24.734;2023-03-01T06:10:32;5.93;;;5.60;;
6834;SDS011;3455;42.150;24.734;2023-03-01T06:12:58;6.83;;;6.20;;
6834;SDS011;3455;42.150;24.734;2023-03-01T06:15:25;6.63;;;6.03;;
6834;SDS011;3455;42.150;24.734;2023-03-01T06:17:54;10.27;;;8.27;;
6834;SDS011;3455;42.150;24.734;2023-03-01T06:20:23;7.47;;;6.87;;
6834;SDS011;3455;42.150;24.734;2023-03-01T06:22:51;8.50;;;7.80;;
6834;SDS011;3455;42.150;24.734;2023-03-01T06:25:18;6.90;;;6.30;;
6834;SDS011;3455;42.150;24.734;2023-03-01T06:27:46;7.73;;;7.03;;
6834;SDS011;3455;42.150;24.734;2023-03-01T06:30:15;21.27;;;14.87;;
6834;SDS011;3455;42.150;24.734;2023-03-01T06:32:43;12.90;;;10.83;;
6834;SDS011;3455;42.150;24.734;2023-03-01T06:35:11;9.37;;;8.50;;
6834;SDS011;3455;42.150;24.734;2023-03-01T06:37:40;10.03;;;9.03;;
6834;SDS011;3455;42.150;24.734;2023-03-01T06:40:08;6.13;;;5.73;;
6834;SDS011;3455;42.150;24.734;2023-03-01T06:42:39;4.10;;;3.80;;
6834;SDS011;3455;42.150;24.734;2023-03-01T06:45:08;5.77;;;5.37;;
6834;SDS011;3455;42.150;24.734;2023-03-01T06:47:35;3.10;;;2.97;;
6834;SDS011;3455;42.150;24.734;2023-03-01T06:50:03;3.60;;;3.40;;
6834;SDS011;3455;42.150;24.734;2023-03-01T06:52:32;2.63;;;2.53;;
6834;SDS011;3455;42.150;24.734;2023-03-01T06:54:58;3.50;;;3.30;;
6834;SDS011;3455;42.150;24.734;2023-03-01T06:57:26;2.70;;;2.43;;
6834;SDS011;3455;42.150;24.734;2023-03-01T06:59:52;3.13;;;2.93;;
6834;SDS011;3455;42.150;24.734;2023-03-01T07:02:19;2.70;;;2.53;;
6834;SDS011;3455;42.150;24.734;2023-03-01T07:04:46;3.73;;;3.50;;
6834;SDS011;3455;42.150;24.734;2023-03-01T07:07:15;2.30;;;2.20;;
6834;SDS011;3455;42.150;24.734;2023-03-01T07:09:44;3.40;;;3.10;;
6834;SDS011;3455;42.150;24.734;2023-03-01T07:12:11;2.53;;;2.33;;
6834;SDS011;3455;42.150;24.734;2023-03-01T07:14:38;2.30;;;2.20;;
6834;SDS011;3455;42.150;24.734;2023-03-01T07:17:05;3.40;;;3.13;;
6834;SDS011;3455;42.150;24.734;2023-03-01T07:19:32;3.30;;;2.60;;
6834;SDS011;3455;42.150;24.734;2023-03-01T07:21:58;2.50;;;2.33;;
6834;SDS011;3455;42.150;24.734;2023-03-01T07:24:25;2.60;;;2.40;;
6834;SDS011;3455;42.150;24.734;2023-03-01T07:26:53;2.17;;;2.07;;
6834;SDS011;3455;42.150;24.734;2023-03-01T07:29:20;2.47;;;2.37;;
6834;SDS011;3455;42.150;24.734;2023-03-01T07:31:47;2.77;;;2.57;;
6834;SDS011;3455;42.150;24.734;2023-03-01T07:34:13;3.10;;;2.90;;
6834;SDS011;3455;42.150;24.734;2023-03-01T07:36:40;3.40;;;3.20;;
6834;SDS011;3455;42.150;24.734;2023-03-01T07:39:08;3.07;;;2.87;;
6834;SDS011;3455;42.150;24.734;2023-03-01T07:41:35;3.60;;;3.30;;
6834;SDS011;3455;42.150;24.734;2023-03-01T07:44:04;6.47;;;6.03;;
6834;SDS011;3455;42.150;24.734;2023-03-01T07:46:31;3.50;;;3.30;;
6834;SDS011;3455;42.150;24.734;2023-03-01T07:48:58;3.20;;;2.77;;
6834;SDS011;3455;42.150;24.734;2023-03-01T07:51:25;3.10;;;2.90;;
6834;SDS011;3455;42.150;24.734;2023-03-01T07:53:51;2.87;;;2.77;;
6834;SDS011;3455;42.150;24.734;2023-03-01T07:56:18;3.97;;;3.67;;
6834;SDS011;3455;42.150;24.734;2023-03-01T07:58:47;2.90;;;2.70;;
6834;SDS011;3455;42.150;24.734;2023-03-01T08:01:16;4.73;;;2.53;;
6834;SDS011;3455;42.150;24.734;2023-03-01T08:03:44;2.27;;;2.17;;
6834;SDS011;3455;42.150;24.734;2023-03-01T08:06:12;2.37;;;2.27;;
6834;SDS011;3455;42.150;24.734;2023-03-01T08:08:39;2.03;;;1.93;;
6834;SDS011;3455;42.150;24.734;2023-03-01T08:11:07;1.63;;;1.53;;
6834;SDS011;3455;42.150;24.734;2023-03-01T08:13:36;2.90;;;1.73;;
6834;SDS011;3455;42.150;24.734;2023-03-01T08:16:03;1.83;;;1.73;;
6834;SDS011;3455;42.150;24.734;2023-03-01T08:18:32;1.27;;;1.23;;
6834;SDS011;3455;42.150;24.734;2023-03-01T08:21:01;1.53;;;1.53;;
6834;SDS011;3455;42.150;24.734;2023-03-01T08:23:29;1.70;;;1.60;;
6834;SDS011;3455;42.150;24.734;2023-03-01T08:26:02;1.70;;;1.60;;
6834;SDS011;3455;42.150;24.734;2023-03-01T08:28:31;2.13;;;1.93;;
6834;SDS011;3455;42.150;24.734;2023-03-01T08:30:57;2.13;;;1.57;;
6834;SDS011;3455;42.150;24.734;2023-03-01T08:33:24;1.70;;;1.60;;
6834;SDS011;3455;42.150;24.734;2023-03-01T08:35:53;1.30;;;1.30;;
6834;SDS011;3455;42.150;24.734;2023-03-01T08:38:28;1.73;;;1.63;;
6834;SDS011;3455;42.150;24.734;2023-03-01T08:40:55;1.60;;;1.50;;
6834;SDS011;3455;42.150;24.734;2023-03-01T08:43:25;2.00;;;1.87;;
6834;SDS011;3455;42.150;24.734;2023-03-01T08:45:52;5.63;;;1.70;;
6834;SDS011;3455;42.150;24.734;2023-03-01T08:48:19;2.47;;;2.00;;
6834;SDS011;3455;42.150;24.734;2023-03-01T08:50:46;1.37;;;1.00;;
6834;SDS011;3455;42.150;24.734;2023-03-01T08:53:14;1.40;;;1.30;;
6834;SDS011;3455;42.150;24.734;2023-03-01T08:55:41;1.60;;;1.50;;
6834;SDS011;3455;42.150;24.734;2023-03-01T08:58:07;2.23;;;1.60;;
6834;SDS011;3455;42.150;24.734;2023-03-01T09:00:34;2.20;;;1.40;;
6834;SDS011;3455;42.150;24.734;2023-03-01T09:03:01;1.60;;;1.50;;
6834;SDS011;3455;42.150;24.734;2023-03-01T09:05:28;1.97;;;1.30;;
6834;SDS011;3455;42.150;24.734;2023-03-01T09:07:57;2.30;;;1.80;;
6834;SDS011;3455;42.150;24.734;2023-03-01T09:10:26;1.20;;;1.10;;
6834;SDS011;3455;42.150;24.734;2023-03-01T09:12:52;1.13;;;1.07;;
6834;SDS011;3455;42.150;24.734;2023-03-01T09:15:19;1.40;;;1.30;;
6834;SDS011;3455;42.150;24.734;2023-03-01T09:17:46;2.10;;;1.83;;
6834;SDS011;3455;42.150;24.734;2023-03-01T09:20:13;1.97;;;1.80;;
6834;SDS011;3455;42.150;24.734;2023-03-01T09:22:40;2.43;;;2.10;;
6834;SDS011;3455;42.150;24.734;2023-03-01T09:25:07;1.67;;;1.57;;
6834;SDS011;3455;42.150;24.734;2023-03-01T09:27:36;1.80;;;1.70;;
6834;SDS011;3455;42.150;24.734;2023-03-01T09:30:03;2.70;;;2.60;;
6834;SDS011;3455;42.150;24.734;2023-03-01T09:32:30;5.73;;;5.17;;
6834;SDS011;3455;42.150;24.734;2023-03-01T09:34:57;2.67;;;2.47;;
6834;SDS011;3455;42.150;24.734;2023-03-01T09:37:29;2.40;;;2.20;;
6834;SDS011;3455;42.150;24.734;2023-03-01T09:39:57;8.13;;;7.43;;
6834;SDS011;3455;42.150;24.734;2023-03-01T09:42:24;5.57;;;3.63;;
6834;SDS011;3455;42.150;24.734;2023-03-01T09:44:53;1.83;;;1.73;;
6834;SDS011;3455;42.150;24.734;2023-03-01T09:47:25;1.43;;;1.33;;
6834;SDS011;3455;42.150;24.734;2023-03-01T09:49:58;1.20;;;1.20;;
6834;SDS011;3455;42.150;24.734;2023-03-01T09:52:34;1.73;;;1.63;;
6834;SDS011;3455;42.150;24.734;2023-03-01T09:55:08;2.50;;;1.73;;
6834;SDS011;3455;42.150;24.734;2023-03-01T09:57:40;1.97;;;1.87;;
6834;SDS011;3455;42.150;24.734;2023-03-01T10:00:18;1.63;;;1.53;;
6834;SDS011;3455;42.150;24.734;2023-03-01T10:02:56;1.53;;;1.43;;
6834;SDS011;3455;42.150;24.734;2023-03-01T10:05:30;2.20;;;2.10;;
6834;SDS011;3455;42.150;24.734;2023-03-01T10:08:13;2.40;;;2.20;;
6834;SDS011;3455;42.150;24.734;2023-03-01T10:10:51;2.50;;;2.30;;
6834;SDS011;3455;42.150;24.734;2023-03-01T10:13:19;3.53;;;2.77;;
6834;SDS011;3455;42.150;24.734;2023-03-01T10:15:52;3.77;;;3.53;;
6834;SDS011;3455;42.150;24.734;2023-03-01T10:18:23;3.13;;;2.93;;
6834;SDS011;3455;42.150;24.734;2023-03-01T10:20:54;2.83;;;2.63;;
6834;SDS011;3455;42.150;24.734;2023-03-01T10:23:23;1.53;;;1.53;;
6834;SDS011;3455;42.150;24.734;2023-03-01T10:26:00;1.93;;;1.83;;
6834;SDS011;3455;42.150;24.734;2023-03-01T10:28:38;3.63;;;2.40;;
6834;SDS011;3455;42.150;24.734;2023-03-01T10:31:15;3.20;;;2.53;;
6834;SDS011;3455;42.150;24.734;2023-03-01T10:33:47;2.60;;;2.30;;
6834;SDS011;3455;42.150;24.734;2023-03-01T10:36:18;4.60;;;2.73;;
6834;SDS011;3455;42.150;24.734;2023-03-01T10:38:49;4.07;;;3.30;;
6834;SDS011;3455;42.150;24.734;2023-03-01T10:41:19;4.70;;;3.37;;
6834;SDS011;3455;42.150;24.734;2023-03-01T10:43:49;2.00;;;1.80;;
6834;SDS011;3455;42.150;24.734;2023-03-01T10:46:23;2.80;;;2.47;;
6834;SDS011;3455;42.150;24.734;2023-03-01T10:49:04;2.73;;;2.43;;
6834;SDS011;3455;42.150;24.734;2023-03-01T10:51:33;3.10;;;1.73;;
6834;SDS011;3455;42.150;24.734;2023-03-01T10:53:59;1.90;;;1.80;;
6834;SDS011;3455;42.150;24.734;2023-03-01T10:56:28;1.90;;;1.80;;
6834;SDS011;3455;42.150;24.734;2023-03-01T10:59:19;2.90;;;2.70;;
6834;SDS011;3455;42.150;24.734;2023-03-01T11:02:00;2.90;;;2.63;;
6834;SDS011;3455;42.150;24.734;2023-03-01T11:04:29;7.23;;;5.60;;
6834;SDS011;3455;42.150;24.734;2023-03-01T11:06:59;27.23;;;15.70;;
6834;SDS011;3455;42.150;24.734;2023-03-01T11:09:30;6.27;;;4.57;;
6834;SDS011;3455;42.150;24.734;2023-03-01T11:12:03;2.20;;;1.97;;
6834;SDS011;3455;42.150;24.734;2023-03-01T11:14:39;1.67;;;1.57;;
6834;SDS011;3455;42.150;24.734;2023-03-01T11:17:15;1.60;;;1.50;;
6834;SDS011;3455;42.150;24.734;2023-03-01T11:19:44;2.67;;;1.53;;
6834;SDS011;3455;42.150;24.734;2023-03-01T11:22:26;1.30;;;1.30;;
6834;SDS011;3455;42.150;24.734;2023-03-01T11:24:54;1.63;;;1.50;;
6834;SDS011;3455;42.150;24.734;2023-03-01T11:27:24;2.70;;;1.90;;
6834;SDS011;3455;42.150;24.734;2023-03-01T11:29:52;3.23;;;2.27;;
6834;SDS011;3455;42.150;24.734;2023-03-01T11:32:24;1.57;;;1.47;;
6834;SDS011;3455;42.150;24.734;2023-03-01T11:34:54;4.93;;;3.17;;
6834;SDS011;3455;42.150;24.734;2023-03-01T11:37:28;1.57;;;1.47;;
6834;SDS011;3455;42.150;24.734;2023-03-01T11:40:03;1.47;;;1.37;;
6834;SDS011;3455;42.150;24.734;2023-03-01T11:42:42;2.17;;;1.97;;
6834;SDS011;3455;42.150;24.734;2023-03-01T11:45:16;1.83;;;1.73;;
6834;SDS011;3455;42.150;24.734;2023-03-01T11:47:49;2.70;;;2.50;;
6834;SDS011;3455;42.150;24.734;2023-03-01T11:50:28;2.53;;;2.33;;
6834;SDS011;3455;42.150;24.734;2023-03-01T11:53:03;4.40;;;1.97;;
6834;SDS011;3455;42.150;24.734;2023-03-01T11:55:50;1.20;;;1.20;;
6834;SDS011;3455;42.150;24.734;2023-03-01T11:58:32;1.93;;;1.83;;
6834;SDS011;3455;42.150;24.734;2023-03-01T12:04:14;3.30;;;1.37;;
6834;SDS011;3455;42.150;24.734;2023-03-01T12:07:13;1.97;;;1.87;;
6834;SDS011;3455;42.150;24.734;2023-03-01T12:09:54;2.60;;;1.43;;
6834;SDS011;3455;42.150;24.734;2023-03-01T12:12:40;3.30;;;2.17;;
6834;SDS011;3455;42.150;24.734;2023-03-01T12:15:31;2.40;;;2.30;;
6834;SDS011;3455;42.150;24.734;2023-03-01T12:18:13;2.80;;;2.30;;
6834;SDS011;3455;42.150;24.734;2023-03-01T12:21:12;3.23;;;2.57;;
6834;SDS011;3455;42.150;24.734;2023-03-01T12:23:57;2.70;;;2.53;;
6834;SDS011;3455;42.150;24.734;2023-03-01T12:26:44;2.73;;;2.53;;
6834;SDS011;3455;42.150;24.734;2023-03-01T12:29:24;2.30;;;2.10;;
6834;SDS011;3455;42.150;24.734;2023-03-01T12:32:13;3.70;;;2.60;;
6834;SDS011;3455;42.150;24.734;2023-03-01T12:34:51;3.33;;;3.03;;
6834;SDS011;3455;42.150;24.734;2023-03-01T12:37:34;2.00;;;1.90;;
6834;SDS011;3455;42.150;24.734;2023-03-01T12:43:03;10.13;;;1.63;;
6834;SDS011;3455;42.150;24.734;2023-03-01T12:45:46;1.90;;;1.80;;
6834;SDS011;3455;42.150;24.734;2023-03-01T12:48:32;2.60;;;2.40;;
6834;SDS011;3455;42.150;24.734;2023-03-01T12:51:07;4.03;;;3.67;;
6834;SDS011;3455;42.150;24.734;2023-03-01T12:53:41;5.50;;;5.10;;
6834;SDS011;3455;42.150;24.734;2023-03-01T12:56:11;7.17;;;5.63;;
6834;SDS011;3455;42.150;24.734;2023-03-01T12:58:45;6.47;;;5.90;;
6834;SDS011;3455;42.150;24.734;2023-03-01T13:01:22;9.13;;;8.27;;
6834;SDS011;3455;42.150;24.734;2023-03-01T13:04:02;12.40;;;6.27;;
6834;SDS011;3455;42.150;24.734;2023-03-01T13:06:40;8.23;;;6.50;;
6834;SDS011;3455;42.150;24.734;2023-03-01T13:09:14;8.50;;;7.70;;
6834;SDS011;3455;42.150;24.734;2023-03-01T13:11:48;9.23;;;8.33;;
6834;SDS011;3455;42.150;24.734;2023-03-01T13:19:59;2.70;;;2.50;;
6834;SDS011;3455;42.150;24.734;2023-03-01T13:22:27;3.50;;;3.30;;
6834;SDS011;3455;42.150;24.734;2023-03-01T13:25:13;5.67;;;5.27;;
6834;SDS011;3455;42.150;24.734;2023-03-01T13:27:42;4.63;;;4.30;;
6834;SDS011;3455;42.150;24.734;2023-03-01T13:39:29;9.53;;;4.00;;
6834;SDS011;3455;42.150;24.734;2023-03-01T13:42:02;3.37;;;3.17;;
6834;SDS011;3455;42.150;24.734;2023-03-01T13:44:30;3.57;;;3.37;;
6834;SDS011;3455;42.150;24.734;2023-03-01T13:47:03;2.77;;;2.53;;
6834;SDS011;3455;42.150;24.734;2023-03-01T13:49:43;4.60;;;4.30;;
6834;SDS011;3455;42.150;24.734;2023-03-01T13:52:30;4.73;;;3.43;;
6834;SDS011;3455;42.150;24.734;2023-03-01T13:55:07;5.90;;;5.43;;
6834;SDS011;3455;42.150;24.734;2023-03-01T13:57:45;6.30;;;5.80;;
6834;SDS011;3455;42.150;24.734;2023-03-01T14:00:26;9.20;;;5.53;;
6834;SDS011;3455;42.150;24.734;2023-03-01T14:03:05;18.13;;;9.13;;
6834;SDS011;3455;42.150;24.734;2023-03-01T14:05:37;6.10;;;5.60;;
6834;SDS011;3455;42.150;24.734;2023-03-01T14:08:14;11.87;;;10.87;;
6834;SDS011;3455;42.150;24.734;2023-03-01T14:10:49;14.73;;;8.70;;
6834;SDS011;3455;42.150;24.734;2023-03-01T14:13:42;5.53;;;5.13;;
6834;SDS011;3455;42.150;24.734;2023-03-01T14:16:21;3.80;;;3.50;;
6834;SDS011;3455;42.150;24.734;2023-03-01T14:18:56;3.57;;;3.37;;
6834;SDS011;3455;42.150;24.734;2023-03-01T14:21:31;3.47;;;3.37;;
6834;SDS011;3455;42.150;24.734;2023-03-01T14:23:57;3.13;;;3.00;;
6834;SDS011;3455;42.150;24.734;2023-03-01T14:26:24;4.23;;;3.80;;
6834;SDS011;3455;42.150;24.734;2023-03-01T14:28:53;4.40;;;4.00;;
6834;SDS011;3455;42.150;24.734;2023-03-01T14:31:35;3.90;;;3.70;;
6834;SDS011;3455;42.150;24.734;2023-03-01T14:34:03;4.90;;;4.60;;
6834;SDS011;3455;42.150;24.734;2023-03-01T14:36:31;5.80;;;5.40;;
6834;SDS011;3455;42.150;24.734;2023-03-01T14:38:59;6.97;;;6.27;;
6834;SDS011;3455;42.150;24.734;2023-03-01T14:41:31;6.13;;;5.63;;
6834;SDS011;3455;42.150;24.734;2023-03-01T14:44:03;4.20;;;3.40;;
6834;SDS011;3455;42.150;24.734;2023-03-01T14:46:33;3.80;;;3.60;;
6834;SDS011;3455;42.150;24.734;2023-03-01T14:49:03;3.60;;;3.30;;
6834;SDS011;3455;42.150;24.734;2023-03-01T14:51:36;3.17;;;2.97;;
6834;SDS011;3455;42.150;24.734;2023-03-01T14:54:10;5.57;;;3.17;;
6834;SDS011;3455;42.150;24.734;2023-03-01T14:56:46;3.63;;;2.90;;
6834;SDS011;3455;42.150;24.734;2023-03-01T14:59:15;3.93;;;3.73;;
6834;SDS011;3455;42.150;24.734;2023-03-01T15:01:44;5.23;;;4.80;;
6834;SDS011;3455;42.150;24.734;2023-03-01T15:04:12;5.47;;;4.30;;
6834;SDS011;3455;42.150;24.734;2023-03-01T15:06:40;7.67;;;4.47;;
6834;SDS011;3455;42.150;24.734;2023-03-01T15:09:10;4.33;;;4.07;;
6834;SDS011;3455;42.150;24.734;2023-03-01T15:11:40;5.00;;;4.70;;
6834;SDS011;3455;42.150;24.734;2023-03-01T15:17:13;4.57;;;4.17;;
6834;SDS011;3455;42.150;24.734;2023-03-01T15:19:47;4.10;;;3.80;;
6834;SDS011;3455;42.150;24.734;2023-03-01T15:22:14;7.20;;;5.77;;
6834;SDS011;3455;42.150;24.734;2023-03-01T15:24:45;5.70;;;5.20;;
6834;SDS011;3455;42.150;24.734;2023-03-01T15:27:14;15.13;;;7.67;;
6834;SDS011;3455;42.150;24.734;2023-03-01T15:29:48;21.63;;;10.37;;
6834;SDS011;3455;42.150;24.734;2023-03-01T15:32:26;23.90;;;10.50;;
6834;SDS011;3455;42.150;24.734;2023-03-01T15:34:55;16.50;;;7.97;;
6834;SDS011;3455;42.150;24.734;2023-03-01T15:37:39;23.27;;;9.53;;
6834;SDS011;3455;42.150;24.734;2023-03-01T15:40:20;16.33;;;7.33;;
6834;SDS011;3455;42.150;24.734;2023-03-01T15:42:56;23.10;;;11.30;;
6834;SDS011;3455;42.150;24.734;2023-03-01T15:45:25;19.50;;;15.50;;